Demorest, Georgia
Current Conditions -  °F | °C
As of 10:55 PM on Tuesday 25 Nov 2014 (Local Time) from KTOC Reporting Station
Overcast Overcast  
Wind Chill: 50°   Ceiling: 7000
Heat Index: 50°   Visibility: 10mi
Dew Point: 46°   Wind: 0mph
Humidity: 85%   Direction: NA
Pressure: 30.04"   Gusts: NA
Location:  34.57°N, 83.55°W
Report Text: KTOC 260355Z AUTO 00000KT 10SM SCT030 BKN070 OVC080 10/08 A3004 RMK AO2 T01000075
Loading
Personal Weather Stations






























Interactive Weather Map New forecast layout! Learn more

10-Day Weather Forecast

Advertisements
Track Severe Weather on mobile